sensor_id;sensor_type;location;lat;lon;timestamp;P1;durP1;ratioP1;P2;durP2;ratioP2
39772;SDS011;25451;51.960;6.250;2023-03-01T00:00:54;9.43;;;4.32;;
39772;SDS011;25451;51.960;6.250;2023-03-01T00:03:25;7.57;;;3.70;;
39772;SDS011;25451;51.960;6.250;2023-03-01T00:05:51;7.32;;;3.30;;
39772;SDS011;25451;51.960;6.250;2023-03-01T00:08:16;8.63;;;3.60;;
39772;SDS011;25451;51.960;6.250;2023-03-01T00:10:41;7.37;;;3.47;;
39772;SDS011;25451;51.960;6.250;2023-03-01T00:13:07;6.77;;;3.27;;
39772;SDS011;25451;51.960;6.250;2023-03-01T00:15:32;7.70;;;3.50;;
39772;SDS011;25451;51.960;6.250;2023-03-01T00:17:59;6.07;;;2.97;;
39772;SDS011;25451;51.960;6.250;2023-03-01T00:20:25;6.10;;;3.20;;
39772;SDS011;25451;51.960;6.250;2023-03-01T00:22:50;6.07;;;3.10;;
39772;SDS011;25451;51.960;6.250;2023-03-01T00:25:15;6.80;;;2.97;;
39772;SDS011;25451;51.960;6.250;2023-03-01T00:27:41;5.37;;;2.80;;
39772;SDS011;25451;51.960;6.250;2023-03-01T00:30:06;6.73;;;3.00;;
39772;SDS011;25451;51.960;6.250;2023-03-01T00:32:32;5.72;;;2.83;;
39772;SDS011;25451;51.960;6.250;2023-03-01T00:34:58;6.33;;;3.47;;
39772;SDS011;25451;51.960;6.250;2023-03-01T00:37:23;5.20;;;2.83;;
39772;SDS011;25451;51.960;6.250;2023-03-01T00:39:49;5.72;;;3.25;;
39772;SDS011;25451;51.960;6.250;2023-03-01T00:42:14;7.80;;;3.40;;
39772;SDS011;25451;51.960;6.250;2023-03-01T00:44:40;5.40;;;3.03;;
39772;SDS011;25451;51.960;6.250;2023-03-01T00:47:06;5.73;;;2.97;;
39772;SDS011;25451;51.960;6.250;2023-03-01T00:49:31;8.43;;;3.90;;
39772;SDS011;25451;51.960;6.250;2023-03-01T00:51:56;7.70;;;3.70;;
39772;SDS011;25451;51.960;6.250;2023-03-01T00:54:22;8.13;;;3.72;;
39772;SDS011;25451;51.960;6.250;2023-03-01T00:56:47;7.07;;;3.30;;
39772;SDS011;25451;51.960;6.250;2023-03-01T00:59:12;8.73;;;3.23;;
39772;SDS011;25451;51.960;6.250;2023-03-01T01:01:38;6.70;;;3.10;;
39772;SDS011;25451;51.960;6.250;2023-03-01T01:04:10;11.77;;;3.83;;
39772;SDS011;25451;51.960;6.250;2023-03-01T01:06:38;6.32;;;3.30;;
39772;SDS011;25451;51.960;6.250;2023-03-01T01:09:07;8.25;;;3.67;;
39772;SDS011;25451;51.960;6.250;2023-03-01T01:11:34;6.97;;;3.33;;
39772;SDS011;25451;51.960;6.250;2023-03-01T01:14:03;7.72;;;3.25;;
39772;SDS011;25451;51.960;6.250;2023-03-01T01:16:28;9.85;;;4.20;;
39772;SDS011;25451;51.960;6.250;2023-03-01T01:18:54;6.50;;;3.10;;
39772;SDS011;25451;51.960;6.250;2023-03-01T01:21:21;7.35;;;3.80;;
39772;SDS011;25451;51.960;6.250;2023-03-01T01:23:48;7.13;;;3.38;;
39772;SDS011;25451;51.960;6.250;2023-03-01T01:26:18;7.80;;;3.17;;
39772;SDS011;25451;51.960;6.250;2023-03-01T01:28:46;7.22;;;3.45;;
39772;SDS011;25451;51.960;6.250;2023-03-01T01:31:12;6.65;;;3.60;;
39772;SDS011;25451;51.960;6.250;2023-03-01T01:33:37;5.50;;;3.33;;
39772;SDS011;25451;51.960;6.250;2023-03-01T01:36:04;7.68;;;3.47;;
39772;SDS011;25451;51.960;6.250;2023-03-01T01:38:30;6.45;;;3.30;;
39772;SDS011;25451;51.960;6.250;2023-03-01T01:40:56;5.80;;;3.07;;
39772;SDS011;25451;51.960;6.250;2023-03-01T01:43:25;6.07;;;3.07;;
39772;SDS011;25451;51.960;6.250;2023-03-01T01:46:01;6.78;;;3.35;;
39772;SDS011;25451;51.960;6.250;2023-03-01T01:48:33;7.40;;;3.37;;
39772;SDS011;25451;51.960;6.250;2023-03-01T01:51:06;6.05;;;3.17;;
39772;SDS011;25451;51.960;6.250;2023-03-01T01:53:36;6.88;;;3.47;;
39772;SDS011;25451;51.960;6.250;2023-03-01T01:56:03;7.22;;;3.17;;
39772;SDS011;25451;51.960;6.250;2023-03-01T01:58:31;6.32;;;3.25;;
39772;SDS011;25451;51.960;6.250;2023-03-01T02:00:57;5.53;;;2.77;;
39772;SDS011;25451;51.960;6.250;2023-03-01T02:03:24;5.90;;;2.73;;
39772;SDS011;25451;51.960;6.250;2023-03-01T02:05:56;8.23;;;3.60;;
39772;SDS011;25451;51.960;6.250;2023-03-01T02:08:28;6.28;;;2.95;;
39772;SDS011;25451;51.960;6.250;2023-03-01T02:10:55;5.93;;;3.13;;
39772;SDS011;25451;51.960;6.250;2023-03-01T02:13:22;6.32;;;3.00;;
39772;SDS011;25451;51.960;6.250;2023-03-01T02:15:48;7.03;;;3.47;;
39772;SDS011;25451;51.960;6.250;2023-03-01T02:18:14;5.90;;;3.30;;
39772;SDS011;25451;51.960;6.250;2023-03-01T02:23:29;6.90;;;3.45;;
39772;SDS011;25451;51.960;6.250;2023-03-01T02:25:58;8.85;;;3.72;;
39772;SDS011;25451;51.960;6.250;2023-03-01T02:28:38;6.70;;;3.38;;
39772;SDS011;25451;51.960;6.250;2023-03-01T02:31:05;9.13;;;2.77;;
39772;SDS011;25451;51.960;6.250;2023-03-01T02:33:59;5.38;;;2.90;;
39772;SDS011;25451;51.960;6.250;2023-03-01T02:36:28;7.13;;;3.13;;
39772;SDS011;25451;51.960;6.250;2023-03-01T02:38:57;8.85;;;3.60;;
39772;SDS011;25451;51.960;6.250;2023-03-01T02:41:24;6.18;;;2.97;;
39772;SDS011;25451;51.960;6.250;2023-03-01T02:43:53;5.40;;;2.77;;
39772;SDS011;25451;51.960;6.250;2023-03-01T02:46:19;6.72;;;3.28;;
39772;SDS011;25451;51.960;6.250;2023-03-01T02:48:49;7.38;;;3.53;;
39772;SDS011;25451;51.960;6.250;2023-03-01T02:56:26;6.55;;;3.25;;
39772;SDS011;25451;51.960;6.250;2023-03-01T02:58:52;6.23;;;3.17;;
39772;SDS011;25451;51.960;6.250;2023-03-01T03:01:18;5.33;;;3.13;;
39772;SDS011;25451;51.960;6.250;2023-03-01T03:03:45;6.25;;;3.28;;
39772;SDS011;25451;51.960;6.250;2023-03-01T03:06:11;8.43;;;3.85;;
39772;SDS011;25451;51.960;6.250;2023-03-01T03:08:36;6.07;;;3.40;;
39772;SDS011;25451;51.960;6.250;2023-03-01T03:11:02;8.47;;;4.00;;
39772;SDS011;25451;51.960;6.250;2023-03-01T03:13:27;6.90;;;3.35;;
39772;SDS011;25451;51.960;6.250;2023-03-01T03:15:54;7.33;;;3.33;;
39772;SDS011;25451;51.960;6.250;2023-03-01T03:18:21;7.15;;;3.30;;
39772;SDS011;25451;51.960;6.250;2023-03-01T03:20:47;6.95;;;3.70;;
39772;SDS011;25451;51.960;6.250;2023-03-01T03:23:17;6.68;;;3.20;;
39772;SDS011;25451;51.960;6.250;2023-03-01T03:25:44;6.25;;;3.42;;
39772;SDS011;25451;51.960;6.250;2023-03-01T03:28:09;7.80;;;3.77;;
39772;SDS011;25451;51.960;6.250;2023-03-01T03:30:36;6.17;;;3.07;;
39772;SDS011;25451;51.960;6.250;2023-03-01T03:33:04;8.80;;;3.65;;
39772;SDS011;25451;51.960;6.250;2023-03-01T03:35:37;6.40;;;3.10;;
39772;SDS011;25451;51.960;6.250;2023-03-01T03:38:05;6.00;;;3.33;;
39772;SDS011;25451;51.960;6.250;2023-03-01T03:40:40;6.97;;;3.25;;
39772;SDS011;25451;51.960;6.250;2023-03-01T03:43:11;6.03;;;3.03;;
39772;SDS011;25451;51.960;6.250;2023-03-01T03:45:39;7.35;;;3.47;;
39772;SDS011;25451;51.960;6.250;2023-03-01T03:48:06;7.50;;;3.53;;
39772;SDS011;25451;51.960;6.250;2023-03-01T03:50:34;6.87;;;3.23;;
39772;SDS011;25451;51.960;6.250;2023-03-01T03:53:00;6.65;;;3.38;;
39772;SDS011;25451;51.960;6.250;2023-03-01T03:55:27;6.75;;;3.47;;
39772;SDS011;25451;51.960;6.250;2023-03-01T03:57:59;6.63;;;3.30;;
39772;SDS011;25451;51.960;6.250;2023-03-01T04:00:32;5.75;;;3.60;;
39772;SDS011;25451;51.960;6.250;2023-03-01T04:02:59;10.33;;;3.50;;
39772;SDS011;25451;51.960;6.250;2023-03-01T04:05:25;7.40;;;3.63;;
39772;SDS011;25451;51.960;6.250;2023-03-01T04:07:52;6.63;;;3.47;;
39772;SDS011;25451;51.960;6.250;2023-03-01T04:10:39;7.50;;;3.08;;
39772;SDS011;25451;51.960;6.250;2023-03-01T04:13:06;7.28;;;3.25;;
39772;SDS011;25451;51.960;6.250;2023-03-01T04:15:34;7.30;;;3.67;;
39772;SDS011;25451;51.960;6.250;2023-03-01T04:17:59;6.65;;;3.33;;
39772;SDS011;25451;51.960;6.250;2023-03-01T04:20:29;8.97;;;3.70;;
39772;SDS011;25451;51.960;6.250;2023-03-01T04:23:00;8.65;;;3.45;;
39772;SDS011;25451;51.960;6.250;2023-03-01T04:28:29;5.25;;;2.85;;
39772;SDS011;25451;51.960;6.250;2023-03-01T04:31:02;8.40;;;3.23;;
39772;SDS011;25451;51.960;6.250;2023-03-01T04:34:01;7.15;;;3.03;;
39772;SDS011;25451;51.960;6.250;2023-03-01T04:36:27;6.07;;;3.13;;
39772;SDS011;25451;51.960;6.250;2023-03-01T04:38:53;6.28;;;3.25;;
39772;SDS011;25451;51.960;6.250;2023-03-01T04:41:20;6.38;;;3.20;;
39772;SDS011;25451;51.960;6.250;2023-03-01T04:43:47;5.37;;;2.90;;
39772;SDS011;25451;51.960;6.250;2023-03-01T04:46:14;8.23;;;3.50;;
39772;SDS011;25451;51.960;6.250;2023-03-01T04:48:42;6.47;;;3.00;;
39772;SDS011;25451;51.960;6.250;2023-03-01T04:51:09;6.68;;;3.40;;
39772;SDS011;25451;51.960;6.250;2023-03-01T04:53:38;5.15;;;2.80;;
39772;SDS011;25451;51.960;6.250;2023-03-01T04:56:05;6.77;;;3.07;;
39772;SDS011;25451;51.960;6.250;2023-03-01T04:58:30;5.32;;;2.88;;
39772;SDS011;25451;51.960;6.250;2023-03-01T05:00:56;8.47;;;3.20;;
39772;SDS011;25451;51.960;6.250;2023-03-01T05:03:21;5.78;;;3.10;;
39772;SDS011;25451;51.960;6.250;2023-03-01T05:05:47;5.47;;;2.92;;
39772;SDS011;25451;51.960;6.250;2023-03-01T05:08:14;6.20;;;2.97;;
39772;SDS011;25451;51.960;6.250;2023-03-01T05:10:47;5.07;;;2.83;;
39772;SDS011;25451;51.960;6.250;2023-03-01T05:13:14;6.45;;;3.17;;
39772;SDS011;25451;51.960;6.250;2023-03-01T05:15:45;5.65;;;2.78;;
39772;SDS011;25451;51.960;6.250;2023-03-01T05:18:22;5.25;;;2.78;;
39772;SDS011;25451;51.960;6.250;2023-03-01T05:20:51;9.52;;;3.58;;
39772;SDS011;25451;51.960;6.250;2023-03-01T05:23:17;5.13;;;2.90;;
39772;SDS011;25451;51.960;6.250;2023-03-01T05:25:43;6.90;;;3.03;;
39772;SDS011;25451;51.960;6.250;2023-03-01T05:28:12;7.55;;;3.03;;
39772;SDS011;25451;51.960;6.250;2023-03-01T05:30:37;5.55;;;2.72;;
39772;SDS011;25451;51.960;6.250;2023-03-01T05:33:06;8.73;;;3.00;;
39772;SDS011;25451;51.960;6.250;2023-03-01T05:35:38;5.65;;;2.97;;
39772;SDS011;25451;51.960;6.250;2023-03-01T05:38:07;5.65;;;3.25;;
39772;SDS011;25451;51.960;6.250;2023-03-01T05:40:33;7.07;;;3.53;;
39772;SDS011;25451;51.960;6.250;2023-03-01T05:42:59;5.85;;;3.20;;
39772;SDS011;25451;51.960;6.250;2023-03-01T05:45:26;6.23;;;3.43;;
39772;SDS011;25451;51.960;6.250;2023-03-01T05:47:51;5.65;;;2.90;;
39772;SDS011;25451;51.960;6.250;2023-03-01T05:50:23;5.05;;;2.78;;
39772;SDS011;25451;51.960;6.250;2023-03-01T05:52:51;6.47;;;3.00;;
39772;SDS011;25451;51.960;6.250;2023-03-01T05:55:21;6.83;;;3.40;;
39772;SDS011;25451;51.960;6.250;2023-03-01T05:57:47;4.78;;;2.55;;
39772;SDS011;25451;51.960;6.250;2023-03-01T06:00:13;6.63;;;3.20;;
39772;SDS011;25451;51.960;6.250;2023-03-01T06:02:40;5.43;;;2.92;;
39772;SDS011;25451;51.960;6.250;2023-03-01T06:05:06;6.82;;;3.03;;
39772;SDS011;25451;51.960;6.250;2023-03-01T06:07:34;5.60;;;2.80;;
39772;SDS011;25451;51.960;6.250;2023-03-01T06:10:00;5.90;;;2.92;;
39772;SDS011;25451;51.960;6.250;2023-03-01T06:12:25;5.25;;;2.90;;
39772;SDS011;25451;51.960;6.250;2023-03-01T06:14:51;6.47;;;2.90;;
39772;SDS011;25451;51.960;6.250;2023-03-01T06:17:16;4.53;;;2.40;;
39772;SDS011;25451;51.960;6.250;2023-03-01T06:19:41;9.47;;;3.43;;
39772;SDS011;25451;51.960;6.250;2023-03-01T06:22:07;6.23;;;2.80;;
39772;SDS011;25451;51.960;6.250;2023-03-01T06:24:33;9.27;;;3.25;;
39772;SDS011;25451;51.960;6.250;2023-03-01T06:26:59;5.65;;;2.95;;
39772;SDS011;25451;51.960;6.250;2023-03-01T06:29:24;5.97;;;2.83;;
39772;SDS011;25451;51.960;6.250;2023-03-01T06:31:49;6.37;;;3.17;;
39772;SDS011;25451;51.960;6.250;2023-03-01T06:34:15;7.83;;;3.37;;
39772;SDS011;25451;51.960;6.250;2023-03-01T06:36:40;7.60;;;2.93;;
39772;SDS011;25451;51.960;6.250;2023-03-01T06:39:06;7.50;;;3.28;;
39772;SDS011;25451;51.960;6.250;2023-03-01T06:41:31;6.65;;;3.03;;
39772;SDS011;25451;51.960;6.250;2023-03-01T06:43:57;7.20;;;3.35;;
39772;SDS011;25451;51.960;6.250;2023-03-01T06:46:23;7.85;;;3.47;;
39772;SDS011;25451;51.960;6.250;2023-03-01T06:48:49;7.27;;;3.30;;
39772;SDS011;25451;51.960;6.250;2023-03-01T06:51:14;9.07;;;3.13;;
39772;SDS011;25451;51.960;6.250;2023-03-01T06:53:40;8.40;;;3.03;;
39772;SDS011;25451;51.960;6.250;2023-03-01T06:56:05;7.37;;;3.50;;
39772;SDS011;25451;51.960;6.250;2023-03-01T06:58:30;6.77;;;3.30;;
39772;SDS011;25451;51.960;6.250;2023-03-01T07:00:56;8.73;;;3.65;;
39772;SDS011;25451;51.960;6.250;2023-03-01T07:03:21;6.32;;;3.25;;
39772;SDS011;25451;51.960;6.250;2023-03-01T07:05:50;5.20;;;2.93;;
39772;SDS011;25451;51.960;6.250;2023-03-01T07:08:19;6.95;;;3.08;;
39772;SDS011;25451;51.960;6.250;2023-03-01T07:10:45;6.40;;;3.40;;
39772;SDS011;25451;51.960;6.250;2023-03-01T07:13:10;8.03;;;3.43;;
39772;SDS011;25451;51.960;6.250;2023-03-01T07:15:36;5.73;;;3.07;;
39772;SDS011;25451;51.960;6.250;2023-03-01T07:18:01;7.67;;;3.80;;
39772;SDS011;25451;51.960;6.250;2023-03-01T07:20:27;7.22;;;3.40;;
39772;SDS011;25451;51.960;6.250;2023-03-01T07:22:53;7.90;;;3.73;;
39772;SDS011;25451;51.960;6.250;2023-03-01T07:25:19;8.05;;;3.65;;
39772;SDS011;25451;51.960;6.250;2023-03-01T07:27:48;7.27;;;3.17;;
39772;SDS011;25451;51.960;6.250;2023-03-01T07:30:14;7.47;;;3.65;;
39772;SDS011;25451;51.960;6.250;2023-03-01T07:32:40;5.90;;;3.27;;
39772;SDS011;25451;51.960;6.250;2023-03-01T07:35:05;7.37;;;3.53;;
39772;SDS011;25451;51.960;6.250;2023-03-01T07:37:31;6.90;;;3.63;;
39772;SDS011;25451;51.960;6.250;2023-03-01T07:39:56;7.37;;;3.43;;
39772;SDS011;25451;51.960;6.250;2023-03-01T07:42:22;7.22;;;3.70;;
39772;SDS011;25451;51.960;6.250;2023-03-01T07:44:48;6.33;;;3.30;;
39772;SDS011;25451;51.960;6.250;2023-03-01T07:47:13;7.13;;;3.50;;
39772;SDS011;25451;51.960;6.250;2023-03-01T07:49:39;6.40;;;3.60;;
39772;SDS011;25451;51.960;6.250;2023-03-01T07:52:04;7.87;;;3.50;;
39772;SDS011;25451;51.960;6.250;2023-03-01T07:54:29;7.30;;;3.47;;
39772;SDS011;25451;51.960;6.250;2023-03-01T07:56:56;7.27;;;3.70;;
39772;SDS011;25451;51.960;6.250;2023-03-01T07:59:21;6.57;;;3.70;;
39772;SDS011;25451;51.960;6.250;2023-03-01T08:01:48;7.50;;;3.72;;
39772;SDS011;25451;51.960;6.250;2023-03-01T08:04:14;6.50;;;3.27;;
39772;SDS011;25451;51.960;6.250;2023-03-01T08:06:39;6.13;;;3.10;;
39772;SDS011;25451;51.960;6.250;2023-03-01T08:09:04;7.73;;;3.63;;
39772;SDS011;25451;51.960;6.250;2023-03-01T08:11:30;9.00;;;3.67;;
39772;SDS011;25451;51.960;6.250;2023-03-01T08:13:55;9.27;;;3.80;;
39772;SDS011;25451;51.960;6.250;2023-03-01T08:16:22;6.53;;;3.40;;
39772;SDS011;25451;51.960;6.250;2023-03-01T08:18:48;7.25;;;3.50;;
39772;SDS011;25451;51.960;6.250;2023-03-01T08:21:14;7.37;;;3.57;;
39772;SDS011;25451;51.960;6.250;2023-03-01T08:23:41;7.25;;;3.58;;
39772;SDS011;25451;51.960;6.250;2023-03-01T08:26:09;7.37;;;3.63;;
39772;SDS011;25451;51.960;6.250;2023-03-01T08:28:39;7.35;;;3.45;;
39772;SDS011;25451;51.960;6.250;2023-03-01T08:31:25;7.18;;;3.47;;
39772;SDS011;25451;51.960;6.250;2023-03-01T08:33:54;8.00;;;3.45;;
39772;SDS011;25451;51.960;6.250;2023-03-01T08:36:22;8.23;;;3.93;;
39772;SDS011;25451;51.960;6.250;2023-03-01T08:38:49;6.90;;;3.45;;
39772;SDS011;25451;51.960;6.250;2023-03-01T08:41:15;11.43;;;4.43;;
39772;SDS011;25451;51.960;6.250;2023-03-01T08:43:40;8.97;;;3.60;;
39772;SDS011;25451;51.960;6.250;2023-03-01T08:46:06;7.30;;;3.57;;
39772;SDS011;25451;51.960;6.250;2023-03-01T08:48:31;8.68;;;3.50;;
39772;SDS011;25451;51.960;6.250;2023-03-01T08:50:57;7.67;;;3.63;;
39772;SDS011;25451;51.960;6.250;2023-03-01T08:53:32;8.20;;;3.58;;
39772;SDS011;25451;51.960;6.250;2023-03-01T08:55:59;7.93;;;3.67;;
39772;SDS011;25451;51.960;6.250;2023-03-01T08:58:25;6.20;;;3.50;;
39772;SDS011;25451;51.960;6.250;2023-03-01T09:00:51;6.93;;;3.33;;
39772;SDS011;25451;51.960;6.250;2023-03-01T09:03:16;7.77;;;3.50;;
39772;SDS011;25451;51.960;6.250;2023-03-01T09:05:41;8.37;;;3.60;;
39772;SDS011;25451;51.960;6.250;2023-03-01T09:08:07;10.43;;;3.70;;
39772;SDS011;25451;51.960;6.250;2023-03-01T09:10:33;6.47;;;3.42;;
39772;SDS011;25451;51.960;6.250;2023-03-01T09:13:02;7.97;;;3.70;;
39772;SDS011;25451;51.960;6.250;2023-03-01T09:15:28;7.07;;;3.40;;
39772;SDS011;25451;51.960;6.250;2023-03-01T09:17:53;7.33;;;3.33;;
39772;SDS011;25451;51.960;6.250;2023-03-01T09:20:18;7.03;;;3.60;;
39772;SDS011;25451;51.960;6.250;2023-03-01T09:22:44;9.27;;;3.73;;
39772;SDS011;25451;51.960;6.250;2023-03-01T09:25:09;7.20;;;3.40;;
39772;SDS011;25451;51.960;6.250;2023-03-01T09:27:34;9.93;;;3.90;;
39772;SDS011;25451;51.960;6.250;2023-03-01T09:30:00;8.33;;;3.50;;
39772;SDS011;25451;51.960;6.250;2023-03-01T09:32:25;6.75;;;3.33;;
39772;SDS011;25451;51.960;6.250;2023-03-01T09:34:51;7.00;;;3.63;;
39772;SDS011;25451;51.960;6.250;2023-03-01T09:37:35;7.70;;;3.30;;
39772;SDS011;25451;51.960;6.250;2023-03-01T09:40:01;8.25;;;3.95;;
39772;SDS011;25451;51.960;6.250;2023-03-01T09:42:29;7.25;;;3.67;;
39772;SDS011;25451;51.960;6.250;2023-03-01T09:45:04;8.13;;;3.60;;
39772;SDS011;25451;51.960;6.250;2023-03-01T09:47:35;7.75;;;4.03;;
39772;SDS011;25451;51.960;6.250;2023-03-01T09:50:11;7.72;;;3.70;;
39772;SDS011;25451;51.960;6.250;2023-03-01T09:55:30;6.82;;;3.65;;
39772;SDS011;25451;51.960;6.250;2023-03-01T10:03:08;8.02;;;3.30;;
39772;SDS011;25451;51.960;6.250;2023-03-01T10:10:47;6.55;;;3.45;;
39772;SDS011;25451;51.960;6.250;2023-03-01T10:13:15;6.83;;;3.23;;
39772;SDS011;25451;51.960;6.250;2023-03-01T10:15:49;5.50;;;2.90;;
39772;SDS011;25451;51.960;6.250;2023-03-01T10:18:20;7.88;;;3.20;;
39772;SDS011;25451;51.960;6.250;2023-03-01T10:21:01;5.65;;;2.80;;
39772;SDS011;25451;51.960;6.250;2023-03-01T10:23:51;7.47;;;3.60;;
39772;SDS011;25451;51.960;6.250;2023-03-01T10:29:31;6.90;;;3.25;;
39772;SDS011;25451;51.960;6.250;2023-03-01T10:32:02;7.57;;;3.08;;
39772;SDS011;25451;51.960;6.250;2023-03-01T10:34:30;6.15;;;3.30;;
39772;SDS011;25451;51.960;6.250;2023-03-01T10:37:01;7.90;;;3.28;;
39772;SDS011;25451;51.960;6.250;2023-03-01T10:39:56;8.30;;;3.27;;
39772;SDS011;25451;51.960;6.250;2023-03-01T10:42:30;6.18;;;3.20;;
39772;SDS011;25451;51.960;6.250;2023-03-01T10:44:58;7.70;;;3.70;;
39772;SDS011;25451;51.960;6.250;2023-03-01T10:47:41;7.68;;;3.58;;
39772;SDS011;25451;51.960;6.250;2023-03-01T10:50:09;7.37;;;3.93;;
39772;SDS011;25451;51.960;6.250;2023-03-01T10:52:47;7.00;;;3.47;;
39772;SDS011;25451;51.960;6.250;2023-03-01T10:55:43;7.53;;;3.40;;
39772;SDS011;25451;51.960;6.250;2023-03-01T10:58:15;9.00;;;3.35;;
39772;SDS011;25451;51.960;6.250;2023-03-01T11:00:51;6.80;;;3.50;;
39772;SDS011;25451;51.960;6.250;2023-03-01T11:03:30;6.10;;;3.20;;
39772;SDS011;25451;51.960;6.250;2023-03-01T11:06:03;7.95;;;3.42;;
39772;SDS011;25451;51.960;6.250;2023-03-01T11:08:39;7.97;;;3.60;;
39772;SDS011;25451;51.960;6.250;2023-03-01T11:13:38;7.43;;;3.97;;
39772;SDS011;25451;51.960;6.250;2023-03-01T11:16:22;7.82;;;3.72;;
39772;SDS011;25451;51.960;6.250;2023-03-01T11:21:33;8.80;;;3.37;;
39772;SDS011;25451;51.960;6.250;2023-03-01T11:24:01;8.50;;;3.90;;
39772;SDS011;25451;51.960;6.250;2023-03-01T11:26:31;7.53;;;3.83;;
39772;SDS011;25451;51.960;6.250;2023-03-01T11:29:02;7.03;;;3.55;;
39772;SDS011;25451;51.960;6.250;2023-03-01T11:31:30;8.95;;;3.63;;
39772;SDS011;25451;51.960;6.250;2023-03-01T11:33:59;7.93;;;3.95;;
39772;SDS011;25451;51.960;6.250;2023-03-01T11:39:23;8.88;;;3.78;;
39772;SDS011;25451;51.960;6.250;2023-03-01T11:41:52;6.07;;;3.42;;
39772;SDS011;25451;51.960;6.250;2023-03-01T11:44:29;6.30;;;3.28;;
39772;SDS011;25451;51.960;6.250;2023-03-01T11:52:25;6.47;;;3.40;;
39772;SDS011;25451;51.960;6.250;2023-03-01T11:55:12;6.40;;;3.45;;
39772;SDS011;25451;51.960;6.250;2023-03-01T12:06:19;6.55;;;3.50;;
39772;SDS011;25451;51.960;6.250;2023-03-01T12:11:50;7.30;;;3.70;;
39772;SDS011;25451;51.960;6.250;2023-03-01T12:19:41;7.13;;;3.80;;
39772;SDS011;25451;51.960;6.250;2023-03-01T12:22:35;7.70;;;3.50;;
39772;SDS011;25451;51.960;6.250;2023-03-01T12:31:05;7.07;;;3.73;;
39772;SDS011;25451;51.960;6.250;2023-03-01T12:50:36;7.80;;;3.85;;
39772;SDS011;25451;51.960;6.250;2023-03-01T12:53:07;9.23;;;3.92;;
39772;SDS011;25451;51.960;6.250;2023-03-01T12:55:54;7.68;;;3.85;;
39772;SDS011;25451;51.960;6.250;2023-03-01T13:11:58;5.60;;;2.87;;
39772;SDS011;25451;51.960;6.250;2023-03-01T13:16:49;6.27;;;3.10;;
39772;SDS011;25451;51.960;6.250;2023-03-01T13:19:20;7.80;;;3.17;;
39772;SDS011;25451;51.960;6.250;2023-03-01T13:21:57;7.43;;;3.47;;
39772;SDS011;25451;51.960;6.250;2023-03-01T13:24:32;7.22;;;3.58;;
39772;SDS011;25451;51.960;6.250;2023-03-01T13:29:43;6.28;;;3.50;;
39772;SDS011;25451;51.960;6.250;2023-03-01T13:32:18;6.73;;;3.50;;
39772;SDS011;25451;51.960;6.250;2023-03-01T13:34:47;8.25;;;3.47;;
39772;SDS011;25451;51.960;6.250;2023-03-01T13:37:33;6.93;;;3.53;;
39772;SDS011;25451;51.960;6.250;2023-03-01T13:40:02;7.40;;;3.70;;
39772;SDS011;25451;51.960;6.250;2023-03-01T13:42:58;9.27;;;3.58;;
39772;SDS011;25451;51.960;6.250;2023-03-01T13:46:10;5.97;;;3.33;;
39772;SDS011;25451;51.960;6.250;2023-03-01T13:48:47;6.88;;;3.50;;
39772;SDS011;25451;51.960;6.250;2023-03-01T13:51:19;7.60;;;3.85;;
39772;SDS011;25451;51.960;6.250;2023-03-01T13:53:49;7.07;;;3.40;;
39772;SDS011;25451;51.960;6.250;2023-03-01T13:56:19;6.30;;;3.43;;
39772;SDS011;25451;51.960;6.250;2023-03-01T14:01:30;5.05;;;2.80;;
39772;SDS011;25451;51.960;6.250;2023-03-01T14:04:00;7.72;;;3.15;;
39772;SDS011;25451;51.960;6.250;2023-03-01T14:06:28;6.73;;;3.30;;
39772;SDS011;25451;51.960;6.250;2023-03-01T14:09:15;6.50;;;3.20;;
39772;SDS011;25451;51.960;6.250;2023-03-01T14:11:56;6.40;;;3.15;;
39772;SDS011;25451;51.960;6.250;2023-03-01T14:14:29;6.40;;;3.28;;
39772;SDS011;25451;51.960;6.250;2023-03-01T14:19:45;7.07;;;3.37;;
39772;SDS011;25451;51.960;6.250;2023-03-01T14:24:50;10.50;;;3.47;;
39772;SDS011;25451;51.960;6.250;2023-03-01T14:27:20;6.85;;;3.33;;
39772;SDS011;25451;51.960;6.250;2023-03-01T14:29:54;6.22;;;2.97;;
39772;SDS011;25451;51.960;6.250;2023-03-01T14:32:23;7.83;;;3.40;;
39772;SDS011;25451;51.960;6.250;2023-03-01T14:34:51;6.70;;;3.53;;
39772;SDS011;25451;51.960;6.250;2023-03-01T14:37:20;7.15;;;3.30;;
39772;SDS011;25451;51.960;6.250;2023-03-01T14:39:46;6.97;;;3.37;;
39772;SDS011;25451;51.960;6.250;2023-03-01T14:42:13;8.73;;;3.22;;
39772;SDS011;25451;51.960;6.250;2023-03-01T14:44:40;6.93;;;3.60;;
39772;SDS011;25451;51.960;6.250;2023-03-01T14:47:12;6.97;;;3.40;;
39772;SDS011;25451;51.960;6.250;2023-03-01T14:49:41;6.50;;;3.28;;
39772;SDS011;25451;51.960;6.250;2023-03-01T14:52:16;10.53;;;3.37;;
39772;SDS011;25451;51.960;6.250;2023-03-01T14:54:46;8.52;;;3.28;;
39772;SDS011;25451;51.960;6.250;2023-03-01T14:57:15;5.60;;;2.92;;
39772;SDS011;25451;51.960;6.250;2023-03-01T14:59:43;7.55;;;3.50;;
39772;SDS011;25451;51.960;6.250;2023-03-01T15:02:13;5.35;;;2.88;;
39772;SDS011;25451;51.960;6.250;2023-03-01T15:04:43;6.70;;;3.10;;
39772;SDS011;25451;51.960;6.250;2023-03-01T15:07:12;6.13;;;3.17;;
39772;SDS011;25451;51.960;6.250;2023-03-01T15:09:39;12.77;;;3.20;;
39772;SDS011;25451;51.960;6.250;2023-03-01T15:14:52;6.32;;;3.15;;
39772;SDS011;25451;51.960;6.250;2023-03-01T15:19:56;6.95;;;3.20;;
39772;SDS011;25451;51.960;6.250;2023-03-01T15:22:21;7.88;;;3.00;;
39772;SDS011;25451;51.960;6.250;2023-03-01T15:24:49;7.10;;;2.80;;
39772;SDS011;25451;51.960;6.250;2023-03-01T15:27:19;6.50;;;3.20;;
39772;SDS011;25451;51.960;6.250;2023-03-01T15:29:50;8.63;;;3.05;;
39772;SDS011;25451;51.960;6.250;2023-03-01T15:32:31;6.63;;;3.40;;
39772;SDS011;25451;51.960;6.250;2023-03-01T15:34:59;4.90;;;2.53;;
39772;SDS011;25451;51.960;6.250;2023-03-01T15:37:45;4.78;;;2.47;;
39772;SDS011;25451;51.960;6.250;2023-03-01T15:40:19;5.97;;;2.58;;
39772;SDS011;25451;51.960;6.250;2023-03-01T15:42:56;4.53;;;2.40;;
39772;SDS011;25451;51.960;6.250;2023-03-01T15:45:32;6.13;;;2.75;;
39772;SDS011;25451;51.960;6.250;2023-03-01T15:48:04;7.57;;;2.60;;
39772;SDS011;25451;51.960;6.250;2023-03-01T15:50:40;6.53;;;2.97;;
39772;SDS011;25451;51.960;6.250;2023-03-01T15:53:07;4.43;;;2.25;;
39772;SDS011;25451;51.960;6.250;2023-03-01T15:55:36;5.10;;;2.40;;
39772;SDS011;25451;51.960;6.250;2023-03-01T15:58:03;6.13;;;2.60;;
39772;SDS011;25451;51.960;6.250;2023-03-01T16:00:38;4.38;;;2.35;;
39772;SDS011;25451;51.960;6.250;2023-03-01T16:03:04;4.72;;;2.40;;
39772;SDS011;25451;51.960;6.250;2023-03-01T16:05:32;4.53;;;2.20;;
39772;SDS011;25451;51.960;6.250;2023-03-01T16:07:59;4.38;;;2.25;;
39772;SDS011;25451;51.960;6.250;2023-03-01T16:10:25;4.80;;;2.50;;
39772;SDS011;25451;51.960;6.250;2023-03-01T16:12:52;6.72;;;2.58;;
39772;SDS011;25451;51.960;6.250;2023-03-01T16:15:19;5.17;;;2.50;;
39772;SDS011;25451;51.960;6.250;2023-03-01T16:17:49;10.98;;;2.60;;
39772;SDS011;25451;51.960;6.250;2023-03-01T16:20:15;6.43;;;2.60;;
39772;SDS011;25451;51.960;6.250;2023-03-01T16:22:43;5.03;;;2.40;;
39772;SDS011;25451;51.960;6.250;2023-03-01T16:25:10;6.45;;;2.70;;
39772;SDS011;25451;51.960;6.250;2023-03-01T16:27:37;5.65;;;2.75;;
39772;SDS011;25451;51.960;6.250;2023-03-01T16:30:04;4.60;;;2.30;;
39772;SDS011;25451;51.960;6.250;2023-03-01T16:32:30;6.78;;;2.60;;
39772;SDS011;25451;51.960;6.250;2023-03-01T16:34:56;5.20;;;2.23;;
39772;SDS011;25451;51.960;6.250;2023-03-01T16:37:21;5.10;;;2.20;;
39772;SDS011;25451;51.960;6.250;2023-03-01T16:39:47;5.60;;;2.20;;
39772;SDS011;25451;51.960;6.250;2023-03-01T16:42:15;5.53;;;2.25;;
39772;SDS011;25451;51.960;6.250;2023-03-01T16:44:42;5.57;;;2.33;;
39772;SDS011;25451;51.960;6.250;2023-03-01T16:47:07;4.67;;;2.10;;
39772;SDS011;25451;51.960;6.250;2023-03-01T16:49:33;6.10;;;2.27;;
39772;SDS011;25451;51.960;6.250;2023-03-01T16:51:58;7.30;;;2.23;;